Time;durP1;ratioP1;P1;durP2;ratioP2;P2;SDS_P1;SDS_P2;PMS_P1;PMS_P2;Temp;Humidity;BMP_temperature;BMP_pressure;BME280_temperature;BME280_humidity;BME280_pressure;Samples;Min_cycle;Max_cycle;Signal;HPM_P1;HPM_P2
2021/09/11 00:01:12;;;;;;;;;9.67;9.33;;;;;;;;5075763;28;51034;-58
2021/09/11 00:03:38;;;;;;;;;6.00;6.00;;;;;;;;5075565;28;52201;-58
2021/09/11 00:06:03;;;;;;;;;5.67;5.67;;;;;;;;5075633;27;50973;-58
2021/09/11 00:08:28;;;;;;;;;8.00;7.00;;;;;;;;5074956;27;50893;-58
2021/09/11 00:10:53;;;;;;;;;9.00;9.00;;;;;;;;5060840;27;51111;-58
2021/09/11 00:13:18;;;;;;;;;7.00;7.00;;;;;;;;5074683;27;51999;-58
2021/09/11 00:15:44;;;;;;;;;6.67;6.00;;;;;;;;5075407;27;51008;-58
2021/09/11 00:18:09;;;;;;;;;5.00;5.00;;;;;;;;5075355;27;51181;-58
2021/09/11 00:20:34;;;;;;;;;6.00;5.67;;;;;;;;5075496;27;51261;-58
2021/09/11 00:23:01;;;;;;;;;9.00;9.00;;;;;;;;5074850;27;51883;-58
2021/09/11 00:25:26;;;;;;;;;7.00;7.00;;;;;;;;5075626;28;51095;-58
2021/09/11 00:27:51;;;;;;;;;6.00;6.00;;;;;;;;5074354;27;51109;-58
2021/09/11 00:30:17;;;;;;;;;7.00;6.33;;;;;;;;5075648;27;51231;-58
2021/09/11 00:32:43;;;;;;;;;5.67;5.00;;;;;;;;5075186;27;51585;-58
2021/09/11 00:35:13;;;;;;;;;5.00;5.00;;;;;;;;5073107;28;51302;-58
2021/09/11 00:37:38;;;;;;;;;7.33;7.33;;;;;;;;5074100;27;51083;-58
2021/09/11 00:40:03;;;;;;;;;5.67;5.33;;;;;;;;5075218;27;51394;-59
2021/09/11 00:42:29;;;;;;;;;5.00;5.00;;;;;;;;5073385;28;51716;-59
2021/09/11 00:44:54;;;;;;;;;6.33;6.33;;;;;;;;5075004;28;51003;-59
2021/09/11 00:47:19;;;;;;;;;5.00;5.00;;;;;;;;5075416;27;50893;-59
2021/09/11 00:49:44;;;;;;;;;5.00;5.00;;;;;;;;5075572;27;50917;-59
2021/09/11 00:52:10;;;;;;;;;5.67;5.67;;;;;;;;5073861;27;51869;-59
2021/09/11 00:54:35;;;;;;;;;5.00;5.00;;;;;;;;5073617;27;50925;-59
2021/09/11 00:57:00;;;;;;;;;10.00;8.67;;;;;;;;5073673;27;51243;-59
2021/09/11 00:59:26;;;;;;;;;5.67;5.00;;;;;;;;5075376;27;51036;-59
2021/09/11 01:01:51;;;;;;;;;5.00;5.00;;;;;;;;5075063;27;51117;-57
2021/09/11 01:04:16;;;;;;;;;5.67;5.67;;;;;;;;5066222;27;51304;-58
2021/09/11 01:06:41;;;;;;;;;5.00;5.00;;;;;;;;5066535;28;51298;-58
2021/09/11 01:09:07;;;;;;;;;7.00;5.33;;;;;;;;5074895;27;51159;-57
2021/09/11 01:11:33;;;;;;;;;5.33;5.33;;;;;;;;5074434;27;51722;-57
2021/09/11 01:13:58;;;;;;;;;5.67;5.00;;;;;;;;5074722;27;51178;-58
2021/09/11 01:16:25;;;;;;;;;5.00;5.00;;;;;;;;5075147;27;51471;-58
2021/09/11 01:18:50;;;;;;;;;7.67;6.67;;;;;;;;5074797;27;50981;-58
2021/09/11 01:21:15;;;;;;;;;5.67;5.00;;;;;;;;5074497;27;51196;-58
2021/09/11 01:23:41;;;;;;;;;7.00;7.00;;;;;;;;5060901;27;50939;-58
2021/09/11 01:26:07;;;;;;;;;4.33;4.33;;;;;;;;5074949;27;51026;-57
2021/09/11 01:28:32;;;;;;;;;7.00;7.00;;;;;;;;5073665;28;51037;-58
2021/09/11 01:30:57;;;;;;;;;4.67;3.67;;;;;;;;5074214;28;52031;-57
2021/09/11 01:33:24;;;;;;;;;7.00;6.67;;;;;;;;5066047;27;51074;-59
2021/09/11 01:35:49;;;;;;;;;5.33;4.67;;;;;;;;5062040;28;51258;-58
2021/09/11 01:38:14;;;;;;;;;4.00;4.00;;;;;;;;5073128;27;51052;-58
2021/09/11 01:40:40;;;;;;;;;5.00;4.67;;;;;;;;5073963;27;52551;-58
2021/09/11 01:43:05;;;;;;;;;5.00;4.00;;;;;;;;5073685;27;50868;-58
2021/09/11 01:45:30;;;;;;;;;5.00;5.00;;;;;;;;5073335;27;51171;-58
2021/09/11 01:47:56;;;;;;;;;5.33;5.33;;;;;;;;5073257;27;51177;-59
2021/09/11 01:50:22;;;;;;;;;3.67;3.67;;;;;;;;5073458;27;52139;-62
2021/09/11 01:52:47;;;;;;;;;6.33;6.33;;;;;;;;5072302;27;51405;-59
2021/09/11 01:55:13;;;;;;;;;6.67;6.67;;;;;;;;5072529;27;51103;-58
2021/09/11 01:57:39;;;;;;;;;5.33;5.33;;;;;;;;5071386;27;51304;-59
2021/09/11 02:00:05;;;;;;;;;5.00;5.00;;;;;;;;5064782;27;53223;-59
2021/09/11 02:02:31;;;;;;;;;4.33;3.67;;;;;;;;5073256;27;50931;-59
2021/09/11 02:04:56;;;;;;;;;7.00;7.00;;;;;;;;5070724;28;52747;-58
2021/09/11 02:07:21;;;;;;;;;5.00;5.00;;;;;;;;5073750;27;51152;-59
2021/09/11 02:09:46;;;;;;;;;6.00;5.00;;;;;;;;5070987;27;51907;-58
2021/09/11 02:12:11;;;;;;;;;5.00;4.67;;;;;;;;5071841;27;50874;-58
2021/09/11 02:14:37;;;;;;;;;5.33;4.33;;;;;;;;5073810;27;51207;-58
2021/09/11 02:17:04;;;;;;;;;6.33;6.33;;;;;;;;5072898;27;51010;-58
2021/09/11 02:19:29;;;;;;;;;5.00;5.00;;;;;;;;5071101;27;50943;-58
2021/09/11 02:21:54;;;;;;;;;5.67;5.67;;;;;;;;5072615;27;50995;-58
2021/09/11 02:24:20;;;;;;;;;5.00;3.67;;;;;;;;5064029;27;50826;-59
2021/09/11 02:26:45;;;;;;;;;6.33;6.00;;;;;;;;5073370;27;51068;-58
2021/09/11 02:29:10;;;;;;;;;5.00;5.00;;;;;;;;5069437;27;51135;-58
2021/09/11 02:31:35;;;;;;;;;5.00;4.67;;;;;;;;5072936;27;50978;-59
2021/09/11 02:34:01;;;;;;;;;5.00;4.00;;;;;;;;5073489;27;50944;-59
2021/09/11 02:36:26;;;;;;;;;4.33;4.33;;;;;;;;5072097;27;51194;-59
2021/09/11 02:38:51;;;;;;;;;4.00;4.00;;;;;;;;5069955;27;51064;-59
2021/09/11 02:41:16;;;;;;;;;5.00;5.00;;;;;;;;5071411;27;51013;-59
2021/09/11 02:43:41;;;;;;;;;5.00;5.00;;;;;;;;5066755;27;51280;-59
2021/09/11 02:46:07;;;;;;;;;6.00;5.00;;;;;;;;5071392;27;50974;-59
2021/09/11 02:48:32;;;;;;;;;5.00;5.00;;;;;;;;5072637;28;51705;-59
2021/09/11 02:50:58;;;;;;;;;4.33;4.33;;;;;;;;5072601;27;51059;-58
2021/09/11 02:53:23;;;;;;;;;4.00;4.00;;;;;;;;5072671;27;51108;-60
2021/09/11 02:55:48;;;;;;;;;5.67;5.67;;;;;;;;5071889;27;51210;-59
2021/09/11 02:58:13;;;;;;;;;6.00;6.00;;;;;;;;5071425;27;51891;-58
2021/09/11 03:00:39;;;;;;;;;5.33;5.33;;;;;;;;5071336;27;51286;-58
2021/09/11 03:03:04;;;;;;;;;5.00;5.00;;;;;;;;5073709;27;50985;-58
2021/09/11 03:05:29;;;;;;;;;5.00;4.67;;;;;;;;5073310;27;50981;-58
2021/09/11 03:07:54;;;;;;;;;6.00;6.00;;;;;;;;5071194;28;51918;-58
2021/09/11 03:10:20;;;;;;;;;5.67;5.67;;;;;;;;5073118;28;50942;-58
2021/09/11 03:12:45;;;;;;;;;5.00;4.00;;;;;;;;5073396;27;51011;-58
2021/09/11 03:15:10;;;;;;;;;5.00;4.00;;;;;;;;5072558;28;51331;-58
2021/09/11 03:17:36;;;;;;;;;7.00;6.00;;;;;;;;5073333;27;51667;-58
2021/09/11 03:20:01;;;;;;;;;4.00;4.00;;;;;;;;5071977;27;51254;-58
2021/09/11 03:22:27;;;;;;;;;4.33;4.33;;;;;;;;5071473;27;51211;-58
2021/09/11 03:24:52;;;;;;;;;3.33;3.33;;;;;;;;5072134;27;50961;-58
2021/09/11 03:27:17;;;;;;;;;3.67;3.67;;;;;;;;5073190;28;51945;-58
2021/09/11 03:29:42;;;;;;;;;3.67;3.67;;;;;;;;5071959;27;50874;-58
2021/09/11 03:32:08;;;;;;;;;4.00;3.00;;;;;;;;5072993;28;50986;-58
2021/09/11 03:34:33;;;;;;;;;4.67;4.67;;;;;;;;5069126;27;51338;-59
2021/09/11 03:36:59;;;;;;;;;4.00;4.00;;;;;;;;5071931;27;51182;-58
2021/09/11 03:39:24;;;;;;;;;3.00;3.00;;;;;;;;5071393;27;50939;-58
2021/09/11 03:41:49;;;;;;;;;5.00;4.00;;;;;;;;5062888;27;51041;-58
2021/09/11 03:44:15;;;;;;;;;3.00;3.00;;;;;;;;5073245;27;51366;-59
2021/09/11 03:46:40;;;;;;;;;4.00;4.00;;;;;;;;5072652;27;51806;-58
2021/09/11 03:49:05;;;;;;;;;3.67;3.00;;;;;;;;5072123;28;52284;-58
2021/09/11 03:51:31;;;;;;;;;3.00;3.00;;;;;;;;5071930;27;51236;-59
2021/09/11 03:53:57;;;;;;;;;4.00;4.00;;;;;;;;5071506;28;51401;-58
2021/09/11 03:56:22;;;;;;;;;4.00;4.00;;;;;;;;5072320;27;52922;-58
2021/09/11 03:58:47;;;;;;;;;5.33;4.00;;;;;;;;5064559;27;51121;-58
2021/09/11 04:01:13;;;;;;;;;5.00;5.00;;;;;;;;5070299;28;51275;-59
2021/09/11 04:03:38;;;;;;;;;4.00;4.00;;;;;;;;5072903;28;50988;-58
2021/09/11 04:06:03;;;;;;;;;4.00;4.00;;;;;;;;5071901;27;51066;-59
2021/09/11 04:08:31;;;;;;;;;5.33;4.67;;;;;;;;5063161;27;51362;-59
2021/09/11 04:10:57;;;;;;;;;3.33;3.33;;;;;;;;5065767;28;50899;-59
2021/09/11 04:13:22;;;;;;;;;3.33;3.00;;;;;;;;5072076;27;50828;-59
2021/09/11 04:15:48;;;;;;;;;5.00;4.33;;;;;;;;5072287;27;51159;-59
2021/09/11 04:18:13;;;;;;;;;3.00;3.00;;;;;;;;5071592;27;51116;-59
2021/09/11 04:20:38;;;;;;;;;3.00;3.00;;;;;;;;5072380;27;51028;-59
2021/09/11 04:23:03;;;;;;;;;3.67;3.67;;;;;;;;5069124;28;50991;-59
2021/09/11 04:25:28;;;;;;;;;3.00;3.00;;;;;;;;5072102;28;50986;-59
2021/09/11 04:27:54;;;;;;;;;3.00;3.00;;;;;;;;5072347;27;51189;-59
2021/09/11 04:30:19;;;;;;;;;2.00;2.00;;;;;;;;5073700;28;50911;-59
2021/09/11 04:32:44;;;;;;;;;4.00;3.00;;;;;;;;5076137;27;50772;-59
2021/09/11 04:35:09;;;;;;;;;2.33;2.33;;;;;;;;5075318;27;51759;-59
2021/09/11 04:37:34;;;;;;;;;3.67;3.00;;;;;;;;5074981;28;51020;-59
2021/09/11 04:40:00;;;;;;;;;3.00;3.00;;;;;;;;5073670;28;51031;-59
2021/09/11 04:42:25;;;;;;;;;2.33;2.33;;;;;;;;5076103;27;50950;-59
2021/09/11 04:44:50;;;;;;;;;5.00;4.00;;;;;;;;5075376;27;51848;-59
2021/09/11 04:47:16;;;;;;;;;3.00;3.00;;;;;;;;5072501;28;51844;-59
2021/09/11 04:49:41;;;;;;;;;3.67;3.33;;;;;;;;5075592;27;51268;-59
2021/09/11 04:52:06;;;;;;;;;3.00;3.00;;;;;;;;5075015;27;51049;-59
2021/09/11 04:54:31;;;;;;;;;3.00;3.00;;;;;;;;5072958;28;51144;-59
2021/09/11 04:56:57;;;;;;;;;4.00;2.33;;;;;;;;5074219;28;51011;-59
2021/09/11 04:59:22;;;;;;;;;4.00;3.00;;;;;;;;5072452;27;51197;-59
2021/09/11 05:01:47;;;;;;;;;3.33;2.33;;;;;;;;5073984;27;51312;-59
2021/09/11 05:04:12;;;;;;;;;2.00;2.00;;;;;;;;5072416;28;50927;-59
2021/09/11 05:06:37;;;;;;;;;4.67;4.00;;;;;;;;5074938;27;51054;-58
2021/09/11 05:09:03;;;;;;;;;5.00;3.67;;;;;;;;5073936;27;51185;-58
2021/09/11 05:11:28;;;;;;;;;4.33;4.33;;;;;;;;5064949;27;51174;-60
2021/09/11 05:13:53;;;;;;;;;3.00;3.00;;;;;;;;5067844;28;51952;-58
2021/09/11 05:16:18;;;;;;;;;5.00;5.00;;;;;;;;5075301;27;51086;-58
2021/09/11 05:18:44;;;;;;;;;2.33;2.33;;;;;;;;5067197;28;51066;-58
2021/09/11 05:21:09;;;;;;;;;12.75;11.75;;;;;;;;5071692;27;51075;-58
2021/09/11 05:23:34;;;;;;;;;3.00;3.00;;;;;;;;5071240;27;52044;-58
2021/09/11 05:26:00;;;;;;;;;3.00;3.00;;;;;;;;5074190;28;50970;-58
2021/09/11 05:28:26;;;;;;;;;4.00;3.67;;;;;;;;5071205;27;51064;-60
2021/09/11 05:30:51;;;;;;;;;2.00;2.00;;;;;;;;5064379;28;50981;-60
2021/09/11 05:33:16;;;;;;;;;4.00;4.00;;;;;;;;5074493;27;50916;-59
2021/09/11 05:35:41;;;;;;;;;3.67;2.33;;;;;;;;5068671;27;50938;-59
2021/09/11 05:38:07;;;;;;;;;3.00;2.67;;;;;;;;5072308;27;51195;-59
2021/09/11 05:40:32;;;;;;;;;4.00;3.00;;;;;;;;5074958;27;51426;-59
2021/09/11 05:42:57;;;;;;;;;3.00;2.67;;;;;;;;5074401;27;51861;-59
2021/09/11 05:45:22;;;;;;;;;3.00;3.00;;;;;;;;5073682;27;52206;-60
2021/09/11 05:47:47;;;;;;;;;7.00;6.00;;;;;;;;5062808;27;51081;-58
2021/09/11 05:50:13;;;;;;;;;3.00;3.00;;;;;;;;5071477;27;51450;-59
2021/09/11 05:52:38;;;;;;;;;4.00;4.00;;;;;;;;5072770;27;52165;-59
2021/09/11 05:55:04;;;;;;;;;4.33;4.00;;;;;;;;5073169;27;50965;-59
2021/09/11 05:57:29;;;;;;;;;5.00;4.00;;;;;;;;5070396;28;51348;-59
2021/09/11 05:59:56;;;;;;;;;4.00;4.00;;;;;;;;5071529;28;51131;-59
2021/09/11 06:02:21;;;;;;;;;3.00;2.67;;;;;;;;5073879;27;52724;-59
2021/09/11 06:04:46;;;;;;;;;4.00;3.67;;;;;;;;5072284;28;50955;-59
2021/09/11 06:07:11;;;;;;;;;4.67;4.00;;;;;;;;5070867;27;51062;-59
2021/09/11 06:09:37;;;;;;;;;3.00;3.00;;;;;;;;5073271;27;50954;-59
2021/09/11 06:12:02;;;;;;;;;4.00;3.33;;;;;;;;5072707;27;51095;-59
2021/09/11 06:14:27;;;;;;;;;4.33;4.33;;;;;;;;5073717;27;50936;-59
2021/09/11 06:16:52;;;;;;;;;3.00;2.00;;;;;;;;5074154;27;51021;-59
2021/09/11 06:19:18;;;;;;;;;3.00;3.00;;;;;;;;5072815;28;51136;-59
2021/09/11 06:21:43;;;;;;;;;2.00;2.00;;;;;;;;5067972;28;51056;-59
2021/09/11 06:24:08;;;;;;;;;3.33;2.67;;;;;;;;5073673;27;51088;-59
2021/09/11 06:26:33;;;;;;;;;1.67;1.67;;;;;;;;5073728;27;50992;-59
2021/09/11 06:28:59;;;;;;;;;2.00;2.00;;;;;;;;5071516;28;52281;-59
2021/09/11 06:31:24;;;;;;;;;2.00;2.00;;;;;;;;5072537;27;52192;-59
2021/09/11 06:33:49;;;;;;;;;2.33;2.33;;;;;;;;5067517;27;51041;-59
2021/09/11 06:36:14;;;;;;;;;3.00;2.00;;;;;;;;5068297;28;51093;-59
2021/09/11 06:38:39;;;;;;;;;1.67;1.67;;;;;;;;5073360;27;50979;-59
2021/09/11 06:41:05;;;;;;;;;1.00;1.00;;;;;;;;5068511;28;52780;-59
2021/09/11 06:43:30;;;;;;;;;2.67;2.67;;;;;;;;5059569;27;51029;-59
2021/09/11 06:45:55;;;;;;;;;3.00;3.00;;;;;;;;5072528;27;51068;-59
2021/09/11 06:48:20;;;;;;;;;2.00;2.00;;;;;;;;5073706;27;51249;-59
2021/09/11 06:50:45;;;;;;;;;3.00;2.00;;;;;;;;5070062;28;51224;-59
2021/09/11 06:53:11;;;;;;;;;3.00;3.00;;;;;;;;5070409;27;51294;-60
2021/09/11 06:55:36;;;;;;;;;2.00;2.00;;;;;;;;5069370;28;50898;-59
2021/09/11 06:58:01;;;;;;;;;3.00;2.33;;;;;;;;5073410;27;50819;-60
2021/09/11 07:00:26;;;;;;;;;4.00;3.00;;;;;;;;5071044;28;51694;-58
2021/09/11 07:02:54;;;;;;;;;2.67;2.00;;;;;;;;5072032;27;50957;-57
2021/09/11 07:05:19;;;;;;;;;3.00;3.00;;;;;;;;5065735;27;50909;-58
2021/09/11 07:07:44;;;;;;;;;2.00;2.00;;;;;;;;5070680;28;50886;-58
2021/09/11 07:10:09;;;;;;;;;1.00;1.00;;;;;;;;5066877;27;50863;-59
2021/09/11 07:12:35;;;;;;;;;3.00;2.00;;;;;;;;5072773;27;50917;-58
2021/09/11 07:15:01;;;;;;;;;0.00;0.00;;;;;;;;5072462;27;51040;-59
2021/09/11 07:17:27;;;;;;;;;2.00;2.00;;;;;;;;5071446;28;52342;-59
2021/09/11 07:19:52;;;;;;;;;1.67;1.67;;;;;;;;5070496;27;51744;-59
2021/09/11 07:22:17;;;;;;;;;2.67;1.00;;;;;;;;5068549;28;51142;-58
2021/09/11 07:24:43;;;;;;;;;1.00;1.00;;;;;;;;5073092;27;50947;-58
2021/09/11 07:27:08;;;;;;;;;1.00;1.00;;;;;;;;5073242;27;51303;-58
2021/09/11 07:29:33;;;;;;;;;1.00;0.00;;;;;;;;5072774;27;51989;-58
2021/09/11 07:32:01;;;;;;;;;1.67;1.00;;;;;;;;5072520;27;50858;-58
2021/09/11 07:34:26;;;;;;;;;29.25;27.00;;;;;;;;5072771;27;51115;-58
2021/09/11 07:36:51;;;;;;;;;12.00;12.00;;;;;;;;5069942;27;51102;-58
2021/09/11 07:39:16;;;;;;;;;4.00;4.00;;;;;;;;5070711;27;51047;-58
2021/09/11 07:41:42;;;;;;;;;2.33;1.67;;;;;;;;5072582;28;50910;-58
2021/09/11 07:44:07;;;;;;;;;2.33;2.00;;;;;;;;5072384;27;50981;-58
2021/09/11 07:46:32;;;;;;;;;4.00;4.00;;;;;;;;5071967;27;51140;-58
2021/09/11 07:48:58;;;;;;;;;1.67;1.67;;;;;;;;5069674;28;52955;-58
2021/09/11 07:51:23;;;;;;;;;1.33;1.00;;;;;;;;5072135;27;51108;-58
2021/09/11 07:53:48;;;;;;;;;0.00;0.00;;;;;;;;5071708;27;50971;-59
2021/09/11 07:56:13;;;;;;;;;0.00;0.00;;;;;;;;5072469;28;51156;-58
2021/09/11 07:58:38;;;;;;;;;0.00;0.00;;;;;;;;5071850;27;51794;-58
2021/09/11 08:01:04;;;;;;;;;1.00;0.00;;;;;;;;5067672;27;51103;-58
2021/09/11 08:03:29;;;;;;;;;0.00;0.00;;;;;;;;5073133;28;51020;-58
2021/09/11 08:05:55;;;;;;;;;0.00;0.00;;;;;;;;5072788;27;51070;-59
2021/09/11 08:08:20;;;;;;;;;0.00;0.00;;;;;;;;5073851;28;53017;-58
2021/09/11 08:10:46;;;;;;;;;0.67;0.00;;;;;;;;5067746;27;51009;-58
2021/09/11 08:13:15;;;;;;;;;1.33;1.33;;;;;;;;5070907;28;51214;-58
2021/09/11 08:15:40;;;;;;;;;0.33;0.00;;;;;;;;5076023;27;51218;-58
2021/09/11 08:18:05;;;;;;;;;1.00;0.00;;;;;;;;5073273;27;51714;-58
2021/09/11 08:20:32;;;;;;;;;0.67;0.67;;;;;;;;5075539;27;51016;-58
2021/09/11 08:23:00;;;;;;;;;0.00;0.00;;;;;;;;5073928;27;50949;-58
2021/09/11 08:25:25;;;;;;;;;0.00;0.00;;;;;;;;5075406;27;51281;-59
2021/09/11 08:27:50;;;;;;;;;1.33;1.33;;;;;;;;5074167;27;51678;-58
2021/09/11 08:30:16;;;;;;;;;1.00;1.00;;;;;;;;5075493;27;50831;-58
2021/09/11 08:32:41;;;;;;;;;1.00;0.33;;;;;;;;5073492;27;51230;-58
2021/09/11 08:35:08;;;;;;;;;1.00;1.00;;;;;;;;5074674;28;51118;-58
2021/09/11 08:37:33;;;;;;;;;3.33;3.33;;;;;;;;5065956;28;52882;-59
2021/09/11 08:39:58;;;;;;;;;2.00;2.00;;;;;;;;5071121;28;51329;-57
2021/09/11 08:42:24;;;;;;;;;3.00;3.00;;;;;;;;5069861;27;51128;-59
2021/09/11 08:44:49;;;;;;;;;1.00;1.00;;;;;;;;5072062;27;51000;-58
2021/09/11 08:47:15;;;;;;;;;0.00;0.00;;;;;;;;5070465;27;51885;-58
2021/09/11 08:49:40;;;;;;;;;0.00;0.00;;;;;;;;5069621;27;51153;-58
2021/09/11 08:52:07;;;;;;;;;1.00;1.00;;;;;;;;5072446;27;51139;-57
2021/09/11 08:54:33;;;;;;;;;1.00;1.00;;;;;;;;5073099;27;51444;-58
2021/09/11 08:57:15;;;;;;;;;0.00;0.00;;;;;;;;5068618;27;52712;-55
2021/09/11 08:59:41;;;;;;;;;0.67;0.00;;;;;;;;5073755;27;51075;-54
2021/09/11 09:02:08;;;;;;;;;2.00;2.00;;;;;;;;5071879;28;51055;-54
2021/09/11 09:04:44;;;;;;;;;2.00;1.67;;;;;;;;5069246;28;51401;-54
2021/09/11 09:07:09;;;;;;;;;2.33;2.33;;;;;;;;5065098;27;52728;-54
2021/09/11 09:09:41;;;;;;;;;2.00;2.00;;;;;;;;5066149;27;50854;-54
2021/09/11 09:12:14;;;;;;;;;2.00;2.00;;;;;;;;5060890;28;51494;-55
2021/09/11 09:14:39;;;;;;;;;0.67;0.33;;;;;;;;5072590;27;51361;-54
2021/09/11 09:17:12;;;;;;;;;1.00;1.00;;;;;;;;5073357;27;51770;-56
2021/09/11 09:19:37;;;;;;;;;1.00;1.00;;;;;;;;5072425;27;51127;-57
2021/09/11 09:22:04;;;;;;;;;2.00;1.00;;;;;;;;5068829;27;52224;-57
2021/09/11 09:24:29;;;;;;;;;1.67;1.67;;;;;;;;5071031;27;51132;-58
2021/09/11 09:27:03;;;;;;;;;0.33;0.33;;;;;;;;5067558;27;53204;-58
2021/09/11 09:29:28;;;;;;;;;0.00;0.00;;;;;;;;5066107;28;51155;-58
2021/09/11 09:31:55;;;;;;;;;1.00;1.00;;;;;;;;5067469;28;51137;-58
2021/09/11 09:34:37;;;;;;;;;1.00;1.00;;;;;;;;5061255;28;51360;-57
2021/09/11 09:37:03;;;;;;;;;1.33;1.33;;;;;;;;5069726;28;51818;-60
2021/09/11 09:39:29;;;;;;;;;1.33;1.33;;;;;;;;5069918;27;51068;-56
2021/09/11 09:42:00;;;;;;;;;2.00;2.00;;;;;;;;5071024;28;51086;-57
2021/09/11 09:44:26;;;;;;;;;2.00;2.00;;;;;;;;5065623;28;51234;-57
2021/09/11 09:46:51;;;;;;;;;0.67;0.67;;;;;;;;5072279;27;51849;-58
2021/09/11 09:49:20;;;;;;;;;2.00;1.67;;;;;;;;5070707;27;51109;-57
2021/09/11 09:51:47;;;;;;;;;1.33;1.33;;;;;;;;5071090;27;51005;-58
2021/09/11 09:54:14;;;;;;;;;0.33;0.33;;;;;;;;5068699;28;51716;-57
2021/09/11 09:56:39;;;;;;;;;5.00;4.00;;;;;;;;5069773;27;51394;-57
2021/09/11 09:59:05;;;;;;;;;2.00;1.00;;;;;;;;5071029;28;51019;-56
2021/09/11 10:01:30;;;;;;;;;2.00;2.00;;;;;;;;5071418;28;51262;-58
2021/09/11 10:03:55;;;;;;;;;1.67;1.67;;;;;;;;5069598;27;51090;-58
2021/09/11 10:06:31;;;;;;;;;1.00;1.00;;;;;;;;5061546;28;51995;-57
2021/09/11 10:09:04;;;;;;;;;2.00;2.00;;;;;;;;5064998;28;51097;-58
2021/09/11 10:11:33;;;;;;;;;1.00;1.00;;;;;;;;5069041;27;51057;-57
2021/09/11 10:14:00;;;;;;;;;1.33;1.33;;;;;;;;5070530;28;51161;-59
2021/09/11 10:16:30;;;;;;;;;1.67;1.67;;;;;;;;5069681;27;53459;-57
2021/09/11 10:18:55;;;;;;;;;2.00;1.00;;;;;;;;5071603;27;51123;-57
2021/09/11 10:21:39;;;;;;;;;2.00;2.00;;;;;;;;5066667;28;51065;-57
2021/09/11 10:24:13;;;;;;;;;4.00;4.00;;;;;;;;5070648;27;51497;-58
2021/09/11 10:26:46;;;;;;;;;3.67;3.67;;;;;;;;5064879;27;51973;-58
2021/09/11 10:29:34;;;;;;;;;3.00;2.33;;;;;;;;5063778;28;51057;-58
2021/09/11 10:32:00;;;;;;;;;3.33;2.67;;;;;;;;5060034;27;51112;-58
2021/09/11 10:34:47;;;;;;;;;3.00;2.67;;;;;;;;5058553;27;51076;-58
2021/09/11 10:37:13;;;;;;;;;3.33;3.33;;;;;;;;5067368;27;51233;-57
2021/09/11 10:39:38;;;;;;;;;4.00;3.00;;;;;;;;5071215;27;51167;-58
2021/09/11 10:42:05;;;;;;;;;2.67;2.00;;;;;;;;5059835;27;50958;-58
2021/09/11 10:44:30;;;;;;;;;1.33;1.33;;;;;;;;5067398;27;50960;-57
2021/09/11 10:46:56;;;;;;;;;6.33;6.33;;;;;;;;5071084;27;51044;-56
2021/09/11 10:49:25;;;;;;;;;2.67;2.67;;;;;;;;5062572;27;51624;-56
2021/09/11 10:52:04;;;;;;;;;2.00;2.00;;;;;;;;5071133;27;50958;-58
2021/09/11 10:54:36;;;;;;;;;2.00;2.00;;;;;;;;5067151;27;51271;-58
2021/09/11 10:57:03;;;;;;;;;3.00;2.67;;;;;;;;5069988;27;51298;-57
2021/09/11 10:59:39;;;;;;;;;3.00;2.67;;;;;;;;5065114;27;51347;-57
2021/09/11 11:02:04;;;;;;;;;1.00;1.00;;;;;;;;5070200;27;51369;-57
2021/09/11 11:04:31;;;;;;;;;2.00;2.00;;;;;;;;5065138;27;51386;-58
2021/09/11 11:06:58;;;;;;;;;3.00;2.00;;;;;;;;5064673;27;51839;-58
2021/09/11 11:09:23;;;;;;;;;2.33;2.33;;;;;;;;5064659;27;51088;-58
2021/09/11 11:11:49;;;;;;;;;3.33;3.33;;;;;;;;5068304;27;51080;-58
2021/09/11 11:14:15;;;;;;;;;2.00;2.00;;;;;;;;5069297;27;51507;-58
2021/09/11 11:16:51;;;;;;;;;7.00;7.00;;;;;;;;5070003;27;51801;-58
2021/09/11 11:19:26;;;;;;;;;4.33;4.33;;;;;;;;5067133;27;51507;-52
2021/09/11 11:21:53;;;;;;;;;3.67;3.67;;;;;;;;5067548;27;51196;-50
2021/09/11 11:24:18;;;;;;;;;4.33;4.00;;;;;;;;5070937;27;51030;-53
2021/09/11 11:26:43;;;;;;;;;3.33;3.00;;;;;;;;5069681;27;51100;-54
2021/09/11 11:29:10;;;;;;;;;2.00;2.00;;;;;;;;5068674;27;51226;-58
2021/09/11 11:31:42;;;;;;;;;5.00;5.00;;;;;;;;5067113;27;51153;-57
2021/09/11 11:34:07;;;;;;;;;3.00;3.00;;;;;;;;5067303;28;51305;-56
2021/09/11 11:36:32;;;;;;;;;8.33;8.33;;;;;;;;5050458;27;51929;-57
2021/09/11 11:39:16;;;;;;;;;4.33;4.33;;;;;;;;5071919;27;51157;-58
2021/09/11 11:41:41;;;;;;;;;5.67;4.00;;;;;;;;5073957;27;51035;-58
2021/09/11 11:44:07;;;;;;;;;2.00;2.00;;;;;;;;5070635;27;51038;-58
2021/09/11 11:46:33;;;;;;;;;7.33;6.33;;;;;;;;5057365;27;51933;-58
2021/09/11 11:48:58;;;;;;;;;3.33;3.33;;;;;;;;5068098;28;51233;-61
2021/09/11 11:51:23;;;;;;;;;2.33;2.00;;;;;;;;5074993;27;50967;-58
2021/09/11 11:53:50;;;;;;;;;3.00;3.00;;;;;;;;5067584;27;51105;-58
2021/09/11 11:56:15;;;;;;;;;2.00;2.00;;;;;;;;5065656;27;51777;-58
2021/09/11 11:58:40;;;;;;;;;3.00;2.67;;;;;;;;5071697;27;51569;-59
2021/09/11 12:01:06;;;;;;;;;7.00;7.00;;;;;;;;5058957;27;51147;-59
2021/09/11 12:03:37;;;;;;;;;3.00;3.00;;;;;;;;5073924;27;51072;-57
2021/09/11 12:06:04;;;;;;;;;3.00;3.00;;;;;;;;5070829;27;51312;-58
2021/09/11 12:08:29;;;;;;;;;5.00;4.00;;;;;;;;5069444;27;50946;-58
2021/09/11 12:10:55;;;;;;;;;4.67;3.67;;;;;;;;5082640;27;51118;-59
2021/09/11 12:13:21;;;;;;;;;4.00;4.00;;;;;;;;5067239;27;51312;-58
2021/09/11 12:15:48;;;;;;;;;2.33;2.33;;;;;;;;5073215;27;51951;-58
2021/09/11 12:18:15;;;;;;;;;4.00;4.00;;;;;;;;5072811;28;51010;-58
2021/09/11 12:20:43;;;;;;;;;8.33;8.33;;;;;;;;5072515;27;51192;-58
2021/09/11 12:23:13;;;;;;;;;5.00;4.00;;;;;;;;5073681;28;51011;-58
2021/09/11 12:25:48;;;;;;;;;6.00;6.00;;;;;;;;5072769;27;51115;-59
2021/09/11 12:28:32;;;;;;;;;2.00;2.00;;;;;;;;5071456;27;50896;-58
2021/09/11 12:30:57;;;;;;;;;2.00;2.00;;;;;;;;5071486;27;51269;-58
2021/09/11 12:33:26;;;;;;;;;5.00;5.00;;;;;;;;5068868;27;52037;-58
2021/09/11 12:35:52;;;;;;;;;3.00;3.00;;;;;;;;5073945;27;51333;-58
2021/09/11 12:38:17;;;;;;;;;3.00;3.00;;;;;;;;5353954;22;51180;-50
2021/09/11 12:40:42;;;;;;;;;13.33;11.00;;;;;;;;4992682;28;51152;-52
2021/09/11 12:43:10;;;;;;;;;5.67;5.67;;;;;;;;5012069;28;51302;-52
2021/09/11 12:45:37;;;;;;;;;5.33;5.33;;;;;;;;5007788;28;52998;-48
2021/09/11 12:48:03;;;;;;;;;3.00;3.00;;;;;;;;5012776;28;51134;-59
2021/09/11 12:50:29;;;;;;;;;4.00;4.00;;;;;;;;5022852;28;51046;-58
2021/09/11 12:52:54;;;;;;;;;3.00;3.00;;;;;;;;5011785;28;51145;-58
2021/09/11 12:55:19;;;;;;;;;3.00;3.00;;;;;;;;5012212;28;51845;-59
2021/09/11 12:57:45;;;;;;;;;4.67;2.67;;;;;;;;5020403;28;51138;-60
2021/09/11 13:00:10;;;;;;;;;4.00;3.33;;;;;;;;5004388;28;51054;-60
2021/09/11 13:02:35;;;;;;;;;4.00;4.00;;;;;;;;4991331;28;50931;-60
2021/09/11 13:05:01;;;;;;;;;4.33;4.33;;;;;;;;4991640;28;51534;-60
2021/09/11 13:07:26;;;;;;;;;3.00;3.00;;;;;;;;4983640;28;51083;-59
2021/09/11 13:09:51;;;;;;;;;3.00;3.00;;;;;;;;4992659;28;51040;-60
2021/09/11 13:12:18;;;;;;;;;10.00;9.00;;;;;;;;4990376;28;51144;-62
2021/09/11 13:14:44;;;;;;;;;2.33;2.33;;;;;;;;4991999;28;50952;-63
2021/09/11 13:17:09;;;;;;;;;5.00;4.00;;;;;;;;4991369;28;51166;-63
2021/09/11 13:19:36;;;;;;;;;2.00;2.00;;;;;;;;4988139;28;51280;-63
2021/09/11 13:22:01;;;;;;;;;3.67;2.33;;;;;;;;4987241;28;51447;-63
2021/09/11 13:24:26;;;;;;;;;4.00;3.33;;;;;;;;4991834;28;52211;-63
2021/09/11 13:26:52;;;;;;;;;3.00;3.00;;;;;;;;4991671;28;51230;-67
2021/09/11 13:29:17;;;;;;;;;4.33;3.33;;;;;;;;4989949;28;51215;-67
2021/09/11 13:31:42;;;;;;;;;3.67;3.33;;;;;;;;4973988;28;51017;-68
2021/09/11 13:34:07;;;;;;;;;2.67;2.67;;;;;;;;4990209;28;51146;-67
2021/09/11 13:36:33;;;;;;;;;3.00;3.00;;;;;;;;4991830;28;51435;-66
2021/09/11 13:38:58;;;;;;;;;2.00;2.00;;;;;;;;4991047;28;51023;-66
2021/09/11 13:41:25;;;;;;;;;5.00;4.67;;;;;;;;4979838;28;51370;-66
2021/09/11 13:43:50;;;;;;;;;2.33;2.33;;;;;;;;4989987;28;51178;-67
2021/09/11 13:46:16;;;;;;;;;4.00;4.00;;;;;;;;4966400;28;51104;-66
2021/09/11 13:48:44;;;;;;;;;1.67;1.67;;;;;;;;4992233;28;51154;-64
2021/09/11 13:51:10;;;;;;;;;3.00;2.33;;;;;;;;4992246;28;51203;-63
2021/09/11 13:53:35;;;;;;;;;5.00;5.00;;;;;;;;4990181;28;51040;-64
2021/09/11 13:56:01;;;;;;;;;3.00;3.00;;;;;;;;4992186;28;50921;-63
2021/09/11 13:58:27;;;;;;;;;2.33;2.33;;;;;;;;4989542;28;50896;-63
2021/09/11 14:00:52;;;;;;;;;2.67;2.67;;;;;;;;4991480;28;51292;-63
2021/09/11 14:03:18;;;;;;;;;4.00;4.00;;;;;;;;4988749;28;51134;-63
2021/09/11 14:05:43;;;;;;;;;3.67;3.67;;;;;;;;4990367;28;51209;-63
2021/09/11 14:08:09;;;;;;;;;5.33;5.00;;;;;;;;4991904;28;51128;-64
2021/09/11 14:10:34;;;;;;;;;4.00;4.00;;;;;;;;4989772;28;51305;-65
2021/09/11 14:13:00;;;;;;;;;3.67;3.33;;;;;;;;4991217;28;52378;-64
2021/09/11 14:15:25;;;;;;;;;3.67;2.33;;;;;;;;4991129;28;50953;-64
2021/09/11 14:17:51;;;;;;;;;3.00;3.00;;;;;;;;4991713;28;51235;-63
2021/09/11 14:20:18;;;;;;;;;3.00;3.00;;;;;;;;4992698;28;51024;-64
2021/09/11 14:22:43;;;;;;;;;3.67;3.00;;;;;;;;4990789;28;52037;-64
2021/09/11 14:25:09;;;;;;;;;5.00;5.00;;;;;;;;4987293;28;51094;-64
2021/09/11 14:27:35;;;;;;;;;3.33;3.33;;;;;;;;4992298;28;51356;-64
2021/09/11 14:30:00;;;;;;;;;3.00;3.00;;;;;;;;4991756;28;50904;-64
2021/09/11 14:32:26;;;;;;;;;5.00;5.00;;;;;;;;4978598;28;51408;-64
2021/09/11 14:34:51;;;;;;;;;3.67;3.00;;;;;;;;4991588;28;50908;-63
2021/09/11 14:37:16;;;;;;;;;5.67;5.33;;;;;;;;4972012;28;50940;-65